This is the latest recevied weather packets stored in our database for station/object EA5CLU-13. If no packets are shown the sender has not sent any weather packets the latest 10 day(s).
| Time | Temp. | Humidity | Pressure | Rain* | Wind** | Luminosity | Snow |
|---|---|---|---|---|---|---|---|
| 1787831353 | 28.33° C | - | 1014.7 hPa | 0 mm | - | - | - |
| 1787831053 | 28.89° C | - | 1014.9 hPa | 0 mm | - | - | - |
| 1787830753 | 28.89° C | - | 1014.8 hPa | 0 mm | - | - | - |
| 1787830454 | 28.33° C | - | 1014.9 hPa | 0 mm | - | - | - |
| 1787830154 | 28.89° C | - | 1015.1 hPa | 0 mm | - | - | - |
| 1787829554 | 28.33° C | - | 1015.2 hPa | 0 mm | - | - | - |
| 1787828654 | 28.89° C | - | 1015.1 hPa | 0 mm | - | - | - |
| 1787827754 | 28.89° C | - | 1015.5 hPa | 0 mm | - | - | - |
| 1787827454 | 29.44° C | - | 1015.5 hPa | 0 mm | - | - | - |
| 1787826856 | 28.89° C | - | 1015.7 hPa | 0 mm | - | - | - |
| 1787826254 | 28.33° C | - | 1015.5 hPa | 0 mm | - | - | - |
| 1787825954 | 28.33° C | - | 1015.6 hPa | 0 mm | - | - | - |
| 1787825653 | 28.33° C | - | 1015.7 hPa | 0 mm | - | - | - |
| 1787825353 | 27.78° C | - | 1015.8 hPa | 0 mm | - | - | - |
| 1787825053 | 27.78° C | - | 1015.7 hPa | 0 mm | - | - | - |
| 1787824753 | 27.78° C | - | 1015.8 hPa | 0 mm | - | - | - |
| 1787824453 | 27.22° C | - | 1015.8 hPa | 0 mm | - | - | - |
| 1787824153 | 27.22° C | - | 1015.8 hPa | 0 mm | - | - | - |
| 1787823854 | 26.67° C | - | 1015.8 hPa | 0 mm | - | - | - |
| 1787823554 | 26.67° C | - | 1015.9 hPa | 0 mm | - | - | - |
| 1787823254 | 26.67° C | - | 1015.7 hPa | 0 mm | - | - | - |
| 1787822954 | 26.67° C | - | 1015.9 hPa | 0 mm | - | - | - |
| 1787822354 | 26.11° C | - | 1015.8 hPa | 0 mm | - | - | - |
| 1787822054 | 20.56° C | - | 1014.2 hPa | 0 mm | - | - | - |
| 1787794638 | 20.56° C | - | 1014.3 hPa | 0 mm | - | - | - |
* Rain latest hour (hover to see other rain measurements)
** Current wind speed in m/s (hover to see current wind gust speed)